Time;durP1;ratioP1;P1;durP2;ratioP2;P2;SDS_P1;SDS_P2;PMS_P1;PMS_P2;Temp;Humidity;BMP_temperature;BMP_pressure;BME280_temperature;BME280_humidity;BME280_pressure;Samples;Min_cycle;Max_cycle;Signal;HPM_P1;HPM_P2
2022/09/20 00:01:20;;;;;;;2.65;0.40;;;10.30;99.20;;;;;;5032214;28;20115;-37
2022/09/20 00:03:48;;;;;;;3.72;0.40;;;10.40;99.40;;;;;;5043431;28;20390;-37
2022/09/20 00:06:17;;;;;;;3.08;0.35;;;10.40;99.50;;;;;;5033544;28;20124;-37
2022/09/20 00:08:44;;;;;;;2.95;0.28;;;10.40;99.60;;;;;;5037649;28;20581;-37
2022/09/20 00:11:14;;;;;;;2.97;0.60;;;10.40;99.60;;;;;;5035412;28;20037;-36
2022/09/20 00:13:41;;;;;;;1.33;0.32;;;10.40;99.80;;;;;;5039546;28;20222;-37
2022/09/20 00:16:10;;;;;;;4.40;0.60;;;10.40;99.90;;;;;;5030784;28;20158;-37
2022/09/20 00:18:36;;;;;;;6.10;0.60;;;10.40;99.90;;;;;;5037898;28;20072;-37
2022/09/20 00:21:02;;;;;;;3.63;0.40;;;10.40;99.90;;;;;;5038223;28;20514;-37
2022/09/20 00:23:31;;;;;;;0.82;0.30;;;10.50;99.90;;;;;;5042840;28;20524;-37
2022/09/20 00:25:59;;;;;;;6.15;0.60;;;10.50;99.90;;;;;;5021530;28;20054;-37
2022/09/20 00:28:26;;;;;;;5.03;0.35;;;10.60;99.90;;;;;;5039740;28;20036;-37
2022/09/20 00:30:53;;;;;;;2.05;0.30;;;10.60;99.90;;;;;;5038485;28;20045;-37
2022/09/20 00:33:20;;;;;;;3.40;0.40;;;10.70;99.90;;;;;;5033407;28;20045;-38
2022/09/20 00:35:46;;;;;;;2.50;0.50;;;10.70;99.90;;;;;;5036314;28;20045;-36
2022/09/20 00:38:12;;;;;;;2.50;0.35;;;10.70;99.90;;;;;;5040464;28;20042;-37
2022/09/20 00:40:40;;;;;;;3.42;0.32;;;10.80;99.90;;;;;;5049570;28;20494;-37
2022/09/20 00:43:05;;;;;;;2.40;0.30;;;10.80;99.90;;;;;;5043978;28;20040;-37
2022/09/20 00:45:32;;;;;;;7.75;0.50;;;10.80;99.90;;;;;;5035563;28;20045;-36
2022/09/20 00:48:15;;;;;;;2.85;0.50;;;10.90;99.90;;;;;;5036788;28;20029;-37
2022/09/20 00:51:15;;;;;;;5.60;0.40;;;10.90;99.90;;;;;;5039725;28;20034;-37
2022/09/20 00:53:45;;;;;;;5.07;0.35;;;10.90;99.90;;;;;;5014475;28;20063;-37
2022/09/20 00:56:40;;;;;;;4.15;0.40;;;10.90;99.90;;;;;;5020109;28;20063;-36
2022/09/20 00:59:26;;;;;;;4.93;0.32;;;11.00;99.90;;;;;;5031826;28;20056;-39
2022/09/20 01:02:11;;;;;;;5.50;0.35;;;11.00;99.90;;;;;;5040459;28;20047;-37
2022/09/20 01:04:40;;;;;;;1.98;0.28;;;11.00;99.90;;;;;;5035866;28;20036;-36
2022/09/20 01:07:08;;;;;;;3.00;0.50;;;11.10;99.90;;;;;;5042467;28;20056;-37
2022/09/20 01:09:34;;;;;;;2.65;0.60;;;11.10;99.90;;;;;;5037852;28;20052;-37
2022/09/20 01:12:04;;;;;;;3.28;0.68;;;11.10;99.90;;;;;;5044356;28;20040;-38
2022/09/20 01:14:31;;;;;;;5.07;0.50;;;11.20;99.90;;;;;;5037170;28;20072;-37
2022/09/20 01:17:02;;;;;;;3.78;0.63;;;11.20;99.90;;;;;;5038291;28;20043;-37
2022/09/20 01:19:48;;;;;;;5.55;0.60;;;11.20;99.90;;;;;;5027696;28;20037;-37
2022/09/20 01:22:31;;;;;;;3.30;0.30;;;11.20;99.90;;;;;;5037902;28;20525;-36
2022/09/20 01:25:16;;;;;;;3.55;0.40;;;11.20;99.90;;;;;;5033930;28;20037;-37
2022/09/20 01:27:48;;;;;;;3.70;0.25;;;11.20;99.90;;;;;;5032175;28;20364;-37
2022/09/20 01:30:30;;;;;;;7.72;0.50;;;11.30;99.90;;;;;;5035327;28;20037;-37
2022/09/20 01:33:28;;;;;;;2.38;0.63;;;11.30;99.90;;;;;;5036587;28;20176;-35
2022/09/20 01:35:57;;;;;;;2.15;0.17;;;11.30;99.90;;;;;;5037696;28;20041;-37
2022/09/20 01:38:39;;;;;;;2.47;0.38;;;11.30;99.90;;;;;;5046473;28;20040;-37
2022/09/20 01:41:26;;;;;;;4.10;0.28;;;11.30;99.90;;;;;;5031938;28;20063;-37
2022/09/20 01:44:10;;;;;;;7.93;0.30;;;11.30;99.90;;;;;;5040764;28;20048;-36
2022/09/20 01:46:37;;;;;;;4.95;0.65;;;11.30;99.90;;;;;;5022326;28;20132;-37
2022/09/20 01:49:39;;;;;;;2.83;0.40;;;11.30;99.90;;;;;;5036613;28;20490;-36
2022/09/20 01:52:45;;;;;;;2.65;0.45;;;11.30;99.90;;;;;;5035151;28;20041;-36
2022/09/20 01:55:28;;;;;;;3.50;0.22;;;11.30;99.90;;;;;;5036937;28;20041;-37
2022/09/20 01:58:31;;;;;;;3.60;0.50;;;11.20;99.90;;;;;;5032913;28;20466;-36
2022/09/20 02:01:15;;;;;;;;;;;11.20;99.90;;;;;;5036794;28;20048;-37
2022/09/20 02:04:13;;;;;;;2.72;0.30;;;11.20;99.90;;;;;;5039512;28;20245;-36
2022/09/20 02:06:45;;;;;;;1.80;0.40;;;11.20;99.90;;;;;;5035696;28;20041;-36
2022/09/20 02:09:20;;;;;;;4.22;0.40;;;11.20;99.90;;;;;;5037196;28;20095;-36
2022/09/20 02:12:37;;;;;;;3.70;0.40;;;11.20;99.90;;;;;;5038394;28;20564;-38
2022/09/20 02:15:43;;;;;;;3.85;0.77;;;11.20;99.90;;;;;;5030163;28;20045;-37
2022/09/20 02:18:16;;;;;;;4.40;0.43;;;11.20;99.90;;;;;;5033571;28;20037;-37
2022/09/20 02:21:04;;;;;;;4.82;0.57;;;11.10;99.90;;;;;;5028718;28;20077;-37
2022/09/20 02:24:00;;;;;;;1.13;0.30;;;11.20;99.90;;;;;;5036669;28;20076;-35
2022/09/20 02:26:31;;;;;;;5.20;0.38;;;11.20;99.90;;;;;;5035980;28;20048;-36
2022/09/20 02:29:27;;;;;;;2.15;0.30;;;11.20;99.90;;;;;;5040941;28;20142;-36
2022/09/20 02:31:59;;;;;;;3.55;0.40;;;11.20;99.90;;;;;;5036986;28;20048;-36
2022/09/20 02:34:35;;;;;;;4.13;0.40;;;11.20;99.90;;;;;;5041182;28;20501;-37
2022/09/20 02:37:13;;;;;;;2.60;0.60;;;11.30;99.90;;;;;;5038499;28;20049;-37
2022/09/20 02:39:57;;;;;;;2.92;0.30;;;11.30;99.90;;;;;;5036106;28;20495;-37
2022/09/20 02:42:37;;;;;;;2.83;0.40;;;11.30;99.90;;;;;;5035155;28;20052;-35
2022/09/20 02:45:21;;;;;;;4.65;0.50;;;11.20;99.90;;;;;;5032226;28;20084;-37
2022/09/20 02:47:47;;;;;;;3.70;0.60;;;11.20;99.90;;;;;;5034273;28;20052;-37
2022/09/20 02:50:33;;;;;;;2.28;0.40;;;11.20;99.90;;;;;;5036108;28;20152;-35
2022/09/20 02:53:17;;;;;;;5.03;0.30;;;11.20;99.90;;;;;;5030127;28;20460;-36
2022/09/20 02:56:03;;;;;;;2.97;0.43;;;11.20;99.90;;;;;;5031782;28;20183;-37
2022/09/20 02:58:46;;;;;;;4.80;0.60;;;11.20;99.90;;;;;;5032831;28;20466;-37
2022/09/20 03:01:20;;;;;;;3.58;0.75;;;11.10;99.90;;;;;;5039821;28;20517;-36
2022/09/20 03:04:33;;;;;;;6.07;0.47;;;11.20;99.90;;;;;;5038144;28;20118;-36
2022/09/20 03:07:11;;;;;;;3.83;0.38;;;11.20;99.90;;;;;;5042334;28;20425;-37
2022/09/20 03:09:53;;;;;;;3.72;0.52;;;11.20;99.90;;;;;;5028119;28;20052;-36
2022/09/20 03:13:08;;;;;;;2.33;0.52;;;11.10;99.90;;;;;;5034286;28;20034;-38
2022/09/20 03:15:46;;;;;;;5.05;0.65;;;11.10;99.90;;;;;;5010335;28;20053;-37
2022/09/20 03:18:16;;;;;;;3.55;0.40;;;11.10;99.90;;;;;;5029660;28;20041;-36
2022/09/20 03:21:02;;;;;;;4.45;0.50;;;11.20;99.90;;;;;;5030607;28;20185;-36
2022/09/20 03:23:37;;;;;;;5.53;0.30;;;11.20;99.90;;;;;;5021880;28;20089;-36
2022/09/20 03:26:15;;;;;;;5.60;0.60;;;11.10;99.90;;;;;;5012956;28;20053;-37
2022/09/20 03:29:04;;;;;;;3.80;0.43;;;11.20;99.90;;;;;;5016352;28;20033;-38
2022/09/20 03:31:29;;;;;;;5.45;0.65;;;11.20;99.90;;;;;;5017121;28;20040;-37
2022/09/20 03:34:07;;;;;;;2.20;0.30;;;11.20;99.90;;;;;;5017689;28;20539;-37
2022/09/20 03:36:41;;;;;;;3.45;0.40;;;11.20;99.90;;;;;;5018304;28;20148;-37
2022/09/20 03:39:27;;;;;;;2.05;0.60;;;11.20;99.90;;;;;;5018959;28;20041;-37
2022/09/20 03:42:18;;;;;;;1.92;0.28;;;11.20;99.90;;;;;;5016896;28;20049;-37
2022/09/20 03:44:52;;;;;;;3.28;0.20;;;11.20;99.90;;;;;;5021515;28;20499;-38
2022/09/20 03:47:31;;;;;;;2.35;0.32;;;11.20;99.90;;;;;;5009677;28;20497;-36
2022/09/20 03:50:10;;;;;;;3.10;0.30;;;11.20;99.90;;;;;;5013089;28;20046;-37
2022/09/20 03:53:26;;;;;;;3.03;0.40;;;11.20;99.90;;;;;;5017623;28;20042;-37
2022/09/20 03:56:03;;;;;;;2.78;0.20;;;11.20;99.90;;;;;;5021271;28;20149;-36
2022/09/20 03:58:53;;;;;;;3.15;0.40;;;11.20;99.90;;;;;;5012522;28;20049;-36
2022/09/20 04:01:52;;;;;;;4.47;0.30;;;11.20;99.90;;;;;;5020530;28;20034;-37
2022/09/20 04:04:51;;;;;;;3.70;0.60;;;11.30;99.90;;;;;;5014638;28;20042;-37
2022/09/20 04:07:25;;;;;;;2.53;0.30;;;11.30;99.90;;;;;;5021330;28;20050;-37
2022/09/20 04:10:15;;;;;;;7.32;0.30;;;11.30;99.90;;;;;;5023930;28;20064;-37
2022/09/20 04:13:00;;;;;;;4.32;0.30;;;11.30;99.90;;;;;;5020775;28;20852;-37
2022/09/20 04:15:40;;;;;;;2.53;0.20;;;11.30;99.90;;;;;;5016318;28;20060;-37
2022/09/20 04:18:38;;;;;;;1.45;0.20;;;11.30;99.90;;;;;;5016129;28;20048;-37
2022/09/20 04:21:22;;;;;;;0.80;0.20;;;11.40;99.90;;;;;;5016087;28;20038;-38
2022/09/20 04:24:09;;;;;;;1.15;0.10;;;11.40;99.90;;;;;;5035422;28;20061;-37
2022/09/20 04:26:43;;;;;;;2.85;0.20;;;11.40;99.90;;;;;;5036550;28;20053;-36
2022/09/20 04:29:29;;;;;;;0.30;0.10;;;11.40;99.90;;;;;;5034289;28;20112;-37
2022/09/20 04:32:10;;;;;;;4.10;0.22;;;11.40;99.90;;;;;;5040961;28;20029;-36
2022/09/20 04:37:37;;;;;;;0.65;0.10;;;11.40;99.90;;;;;;5034241;28;20417;-37
2022/09/20 04:40:28;;;;;;;1.95;0.20;;;11.40;99.90;;;;;;5040648;28;20514;-36
2022/09/20 04:43:11;;;;;;;2.95;0.20;;;11.40;99.90;;;;;;5040918;28;20040;-37
2022/09/20 04:46:21;;;;;;;1.38;0.10;;;11.30;99.90;;;;;;5037415;28;20413;-37
2022/09/20 04:49:15;;;;;;;1.60;0.75;;;11.30;99.90;;;;;;5000450;28;20161;-37
2022/09/20 04:52:17;;;;;;;1.55;0.20;;;11.20;99.90;;;;;;5045482;28;20090;-37
2022/09/20 04:55:12;;;;;;;1.02;0.35;;;11.10;99.90;;;;;;5019122;28;20560;-36
2022/09/20 04:58:03;;;;;;;2.10;0.75;;;11.10;99.90;;;;;;5038878;28;20085;-38
2022/09/20 05:01:01;;;;;;;1.02;0.22;;;11.00;99.90;;;;;;5021996;28;20129;-36
2022/09/20 05:03:55;;;;;;;1.88;0.20;;;11.00;99.90;;;;;;5022507;28;20057;-36
2022/09/20 05:06:54;;;;;;;3.38;0.20;;;10.90;99.90;;;;;;5034963;28;20045;-37
2022/09/20 05:09:58;;;;;;;2.80;0.20;;;10.90;99.90;;;;;;5039620;28;20037;-36
2022/09/20 05:13:05;;;;;;;2.55;0.30;;;10.90;99.90;;;;;;5003451;28;20414;-35
2022/09/20 05:16:04;;;;;;;0.70;0.10;;;10.90;99.90;;;;;;4987099;28;20046;-35
2022/09/20 05:18:58;;;;;;;0.38;0.10;;;10.90;99.90;;;;;;5032832;28;20045;-37
2022/09/20 05:22:01;;;;;;;3.40;0.20;;;10.90;99.90;;;;;;5038017;28;20160;-36
2022/09/20 05:24:48;;;;;;;0.55;0.10;;;10.90;99.90;;;;;;5034561;28;20393;-36
2022/09/20 05:27:41;;;;;;;1.85;0.10;;;10.90;99.90;;;;;;5034475;28;20049;-36
2022/09/20 05:30:25;;;;;;;3.75;0.20;;;10.90;99.90;;;;;;5034785;28;20102;-36
2022/09/20 05:33:04;;;;;;;1.60;0.20;;;10.90;99.90;;;;;;5020527;28;20037;-36
2022/09/20 05:35:53;;;;;;;1.48;0.30;;;10.90;99.90;;;;;;5035392;28;20055;-35
2022/09/20 05:38:31;;;;;;;2.30;0.20;;;10.90;99.90;;;;;;5029066;28;20045;-36
2022/09/20 05:41:07;;;;;;;3.90;0.20;;;11.00;99.90;;;;;;5043521;28;20143;-36
2022/09/20 05:43:53;;;;;;;2.85;0.30;;;11.00;99.90;;;;;;5038949;28;20046;-36
2022/09/20 05:46:39;;;;;;;2.00;0.20;;;11.00;99.90;;;;;;5034305;28;20175;-37
2022/09/20 05:49:35;;;;;;;0.90;0.30;;;11.10;99.90;;;;;;5034496;28;20513;-36
2022/09/20 05:52:58;;;;;;;2.90;0.30;;;11.00;99.90;;;;;;5032208;28;20120;-36
2022/09/20 05:55:41;;;;;;;2.60;0.40;;;11.10;99.90;;;;;;4981844;28;20140;-36
2022/09/20 05:58:53;;;;;;;3.58;0.60;;;11.10;99.90;;;;;;4984616;28;20192;-36
2022/09/20 06:01:28;;;;;;;5.37;0.50;;;11.10;99.90;;;;;;4964902;28;21284;-36
2022/09/20 06:04:18;;;;;;;0.75;0.20;;;11.10;99.90;;;;;;5035640;28;20387;-40
2022/09/20 06:07:03;;;;;;;1.48;0.45;;;11.00;99.90;;;;;;5034381;28;20037;-36
2022/09/20 06:09:39;;;;;;;1.38;0.25;;;11.10;99.90;;;;;;5018097;28;20041;-35
2022/09/20 06:12:18;;;;;;;4.43;0.40;;;11.10;99.90;;;;;;5035610;28;20069;-36
2022/09/20 06:15:06;;;;;;;5.53;0.50;;;11.10;99.90;;;;;;5036264;28;20048;-37
2022/09/20 06:17:56;;;;;;;2.08;0.32;;;11.10;99.90;;;;;;5027841;28;20056;-36
2022/09/20 06:20:55;;;;;;;3.42;0.38;;;11.10;99.90;;;;;;5022007;28;20037;-37
2022/09/20 06:23:22;;;;;;;2.42;0.55;;;11.10;99.90;;;;;;5034105;28;20061;-39
2022/09/20 06:25:57;;;;;;;4.22;0.65;;;11.10;99.90;;;;;;5038847;28;20045;-36
2022/09/20 06:28:28;;;;;;;5.10;0.60;;;11.10;99.90;;;;;;5038215;28;20049;-35
2022/09/20 06:30:56;;;;;;;4.15;1.95;;;11.10;99.90;;;;;;5029271;28;20045;-38
2022/09/20 06:33:27;;;;;;;3.53;0.45;;;11.10;99.90;;;;;;5029637;28;20045;-35
2022/09/20 06:42:09;;;;;;;3.03;0.40;;;11.20;99.90;;;;;;5036797;28;20052;-38
2022/09/20 06:44:38;;;;;;;3.78;0.30;;;11.20;99.90;;;;;;5033510;28;20038;-38
2022/09/20 06:47:07;;;;;;;3.80;0.40;;;11.30;99.90;;;;;;5038457;28;20040;-37
2022/09/20 06:49:34;;;;;;;1.10;0.30;;;11.30;99.90;;;;;;5040610;28;20045;-36
2022/09/20 06:52:04;;;;;;;2.05;0.20;;;11.40;99.90;;;;;;5029798;28;20045;-37
2022/09/20 06:54:31;;;;;;;2.20;0.30;;;11.50;99.90;;;;;;5033127;28;20033;-37
2022/09/20 06:56:57;;;;;;;2.97;0.30;;;11.50;99.90;;;;;;5033134;28;20037;-37
2022/09/20 06:59:22;;;;;;;1.40;0.20;;;11.60;99.90;;;;;;5036761;28;20037;-37
2022/09/20 07:01:48;;;;;;;1.75;0.20;;;11.60;99.90;;;;;;5032943;28;20045;-36
2022/09/20 07:04:14;;;;;;;1.13;0.20;;;11.70;99.90;;;;;;5035235;28;20155;-36
2022/09/20 07:06:40;;;;;;;3.25;0.20;;;11.70;99.90;;;;;;5033998;28;20048;-42
2022/09/20 07:09:05;;;;;;;4.15;0.22;;;11.80;99.90;;;;;;5033974;28;20037;-38
2022/09/20 07:11:33;;;;;;;1.48;0.30;;;11.80;99.90;;;;;;5033660;28;20030;-37
2022/09/20 07:14:00;;;;;;;2.25;0.30;;;11.90;99.90;;;;;;5010617;28;20045;-36
2022/09/20 07:16:26;;;;;;;1.00;0.28;;;11.90;99.90;;;;;;5036730;28;20052;-36
2022/09/20 07:18:52;;;;;;;5.53;0.40;;;12.00;99.90;;;;;;5033681;28;20045;-36
2022/09/20 07:21:19;;;;;;;1.92;0.30;;;12.10;99.90;;;;;;5030767;28;20128;-35
2022/09/20 07:23:47;;;;;;;1.23;0.40;;;12.20;99.90;;;;;;5029472;28;20049;-35
2022/09/20 07:26:25;;;;;;;4.05;0.60;;;12.30;99.90;;;;;;5037280;28;20049;-36
2022/09/20 07:28:51;;;;;;;1.90;0.20;;;12.40;99.90;;;;;;5036095;28;20410;-36
2022/09/20 07:31:18;;;;;;;3.22;0.30;;;12.50;99.90;;;;;;5029962;28;20037;-36
2022/09/20 07:33:44;;;;;;;3.25;0.32;;;12.50;99.90;;;;;;5036561;28;20272;-35
2022/09/20 07:36:13;;;;;;;2.72;0.30;;;12.60;99.90;;;;;;5035350;28;20154;-35
2022/09/20 07:38:40;;;;;;;4.22;0.60;;;12.70;99.90;;;;;;5033880;28;20099;-35
2022/09/20 07:41:07;;;;;;;3.60;0.80;;;12.70;99.90;;;;;;5038710;28;20143;-35
2022/09/20 07:43:33;;;;;;;3.58;0.15;;;12.80;99.90;;;;;;5035635;28;20051;-36
2022/09/20 07:45:59;;;;;;;1.73;0.20;;;12.80;99.90;;;;;;5040137;28;20040;-35
2022/09/20 07:48:28;;;;;;;4.93;0.60;;;12.80;99.90;;;;;;5017623;28;20033;-36
2022/09/20 07:50:56;;;;;;;1.63;0.28;;;12.90;99.90;;;;;;5042183;28;20069;-36
2022/09/20 07:53:22;;;;;;;1.75;0.28;;;12.90;99.90;;;;;;5034759;28;20045;-36
2022/09/20 07:56:01;;;;;;;1.60;0.30;;;12.90;99.90;;;;;;5038471;28;20111;-36
2022/09/20 07:58:28;;;;;;;2.25;0.30;;;12.90;99.90;;;;;;5034719;28;20041;-36
2022/09/20 08:00:57;;;;;;;2.90;0.55;;;13.00;99.90;;;;;;5037645;28;20411;-37
2022/09/20 08:03:23;;;;;;;1.45;0.25;;;13.10;99.90;;;;;;5037709;28;20037;-36
2022/09/20 08:05:49;;;;;;;2.17;0.30;;;13.20;99.90;;;;;;5021042;28;20387;-37
2022/09/20 08:08:16;;;;;;;6.10;0.38;;;13.30;99.90;;;;;;5022396;28;20191;-35
2022/09/20 08:10:44;;;;;;;2.33;0.40;;;13.30;99.90;;;;;;5034991;28;20142;-36
2022/09/20 08:13:14;;;;;;;3.58;0.25;;;13.50;99.90;;;;;;5037429;28;20034;-34
2022/09/20 08:15:41;;;;;;;2.67;0.30;;;13.60;99.90;;;;;;5043681;28;20039;-35
2022/09/20 08:18:08;;;;;;;1.67;0.30;;;13.70;99.90;;;;;;5047137;28;20440;-35
2022/09/20 08:20:38;;;;;;;4.80;0.30;;;13.70;99.90;;;;;;5042541;28;20132;-37
2022/09/20 08:23:05;;;;;;;3.13;0.30;;;13.70;99.90;;;;;;5040467;28;20119;-35
2022/09/20 08:25:31;;;;;;;1.73;0.20;;;13.70;99.90;;;;;;5037986;28;20049;-35
2022/09/20 08:27:57;;;;;;;5.30;0.88;;;13.70;99.90;;;;;;5033342;28;20072;-36
2022/09/20 08:30:23;;;;;;;2.47;0.20;;;13.70;99.90;;;;;;5032403;28;20056;-36
2022/09/20 08:32:49;;;;;;;2.65;0.30;;;13.70;99.90;;;;;;5034144;28;20541;-34
2022/09/20 08:35:16;;;;;;;3.13;0.20;;;13.70;99.90;;;;;;5034606;28;20486;-35
2022/09/20 08:37:45;;;;;;;3.75;0.93;;;13.60;99.90;;;;;;5034242;28;20068;-35
2022/09/20 08:40:14;;;;;;;2.72;0.30;;;13.70;99.90;;;;;;5036238;28;20033;-37
2022/09/20 08:42:43;;;;;;;2.75;0.45;;;13.80;99.90;;;;;;5039970;28;20490;-37
2022/09/20 08:45:18;;;;;;;1.45;0.20;;;13.80;99.90;;;;;;5037451;28;20037;-37
2022/09/20 08:47:52;;;;;;;7.82;0.40;;;14.00;99.90;;;;;;5038693;28;20130;-35
2022/09/20 08:50:19;;;;;;;1.85;0.30;;;14.10;99.90;;;;;;5040025;28;20521;-37
2022/09/20 08:52:52;;;;;;;1.63;0.35;;;14.20;99.90;;;;;;5041461;28;20037;-36
2022/09/20 08:55:21;;;;;;;2.47;0.30;;;14.30;99.90;;;;;;5025487;28;20041;-37
2022/09/20 08:57:51;;;;;;;1.45;0.20;;;14.50;99.90;;;;;;5038666;28;20116;-37
2022/09/20 09:00:24;;;;;;;2.13;0.40;;;14.70;99.90;;;;;;5035576;28;20041;-37
2022/09/20 09:02:54;;;;;;;1.10;0.20;;;14.80;99.90;;;;;;5037633;28;20106;-38
2022/09/20 09:05:49;;;;;;;4.07;0.43;;;14.80;99.90;;;;;;5042785;28;20053;-37
2022/09/20 09:08:20;;;;;;;4.00;0.20;;;14.80;98.80;;;;;;5037479;28;20041;-36
2022/09/20 09:10:55;;;;;;;3.45;0.25;;;14.70;99.90;;;;;;5035685;28;20045;-37
2022/09/20 09:13:52;;;;;;;3.38;0.32;;;14.80;99.90;;;;;;5034463;28;20033;-38
2022/09/20 09:16:21;;;;;;;6.07;0.50;;;14.80;99.90;;;;;;5037302;28;20053;-39
2022/09/20 09:18:50;;;;;;;2.85;0.45;;;14.90;99.90;;;;;;5037798;28;20041;-38
2022/09/20 09:21:18;;;;;;;2.38;0.40;;;14.90;99.90;;;;;;5032128;28;20091;-37
2022/09/20 09:24:00;;;;;;;3.05;0.30;;;15.00;99.90;;;;;;5037853;28;20065;-37
2022/09/20 09:26:27;;;;;;;4.55;0.32;;;15.00;98.20;;;;;;5034533;28;20132;-37
2022/09/20 09:29:22;;;;;;;3.17;0.88;;;14.90;99.10;;;;;;5040916;28;20071;-37
2022/09/20 09:31:53;;;;;;;4.15;0.40;;;14.80;99.50;;;;;;5026945;28;20044;-38
2022/09/20 09:34:27;;;;;;;3.92;0.40;;;14.90;99.90;;;;;;5036364;28;20037;-38
2022/09/20 09:36:54;;;;;;;3.00;0.35;;;15.00;99.70;;;;;;5041764;28;20059;-38
2022/09/20 09:39:36;;;;;;;2.60;0.22;;;15.20;99.90;;;;;;5037962;28;20045;-37
2022/09/20 09:42:19;;;;;;;;;;;15.40;97.50;;;;;;5034871;28;20514;-37
2022/09/20 09:44:49;;;;;;;0.98;0.20;;;15.50;96.70;;;;;;5036825;28;19925;-36
2022/09/20 09:47:28;;;;;;;3.60;0.40;;;15.60;98.20;;;;;;5024635;28;20240;-37
2022/09/20 09:49:59;;;;;;;3.45;0.20;;;15.80;97.00;;;;;;5038784;28;20043;-37
2022/09/20 09:52:31;;;;;;;2.10;0.45;;;15.80;95.60;;;;;;5036064;28;20091;-36
2022/09/20 09:54:59;;;;;;;2.30;0.25;;;15.80;95.90;;;;;;5035373;28;20036;-36
2022/09/20 09:57:54;;;;;;;4.72;0.82;;;16.00;95.50;;;;;;5028401;28;20585;-36
2022/09/20 10:00:25;;;;;;;6.05;0.30;;;16.20;92.70;;;;;;5030270;28;20050;-36
2022/09/20 10:02:57;;;;;;;3.28;0.40;;;16.20;91.80;;;;;;5040612;28;20486;-37
2022/09/20 10:06:06;;;;;;;0.67;0.10;;;16.10;90.10;;;;;;5037371;28;20548;-36
2022/09/20 10:08:57;;;;;;;4.97;0.80;;;16.10;85.90;;;;;;4962021;28;20050;-36
2022/09/20 10:11:36;;;;;;;5.18;0.57;;;16.20;80.40;;;;;;4961622;28;20039;-36
2022/09/20 10:14:30;;;;;;;4.43;0.40;;;16.40;85.10;;;;;;5017357;28;20060;-36
2022/09/20 10:17:01;;;;;;;4.55;0.43;;;16.50;83.90;;;;;;5034670;28;20037;-37
2022/09/20 10:19:33;;;;;;;2.60;0.20;;;16.50;84.30;;;;;;5034081;28;20160;-36
2022/09/20 10:22:22;;;;;;;2.70;0.25;;;16.40;84.60;;;;;;5032092;28;20128;-35
2022/09/20 10:25:00;;;;;;;4.63;0.73;;;16.30;83.00;;;;;;5034538;28;20037;-37
2022/09/20 10:27:56;;;;;;;3.15;0.40;;;16.10;83.70;;;;;;5034599;28;20060;-37
2022/09/20 10:30:27;;;;;;;4.43;0.40;;;16.00;83.00;;;;;;5037799;28;20791;-37
2022/09/20 10:33:05;;;;;;;3.72;0.55;;;15.80;84.70;;;;;;5044010;28;20089;-37
2022/09/20 10:36:09;;;;;;;4.30;0.32;;;15.60;84.80;;;;;;5033592;28;20124;-38
2022/09/20 10:38:44;;;;;;;5.68;0.32;;;15.40;86.50;;;;;;4993759;28;20053;-37
2022/09/20 10:44:30;;;;;;;2.20;0.30;;;15.00;90.80;;;;;;5030139;28;20036;-37
2022/09/20 10:47:18;;;;;;;2.80;0.68;;;14.80;91.60;;;;;;5032054;28;20128;-36
2022/09/20 10:50:03;;;;;;;2.78;0.38;;;14.80;92.30;;;;;;5031457;28;20498;-36
2022/09/20 10:53:02;;;;;;;3.85;0.50;;;14.80;92.60;;;;;;5033839;28;20427;-35
2022/09/20 10:55:41;;;;;;;0.80;0.20;;;14.90;92.50;;;;;;5037547;28;20047;-36
2022/09/20 10:58:25;;;;;;;4.28;0.20;;;15.10;92.30;;;;;;5031446;28;20045;-35
2022/09/20 11:01:17;;;;;;;4.68;0.30;;;15.30;91.50;;;;;;5032874;28;20091;-35
2022/09/20 11:04:21;;;;;;;2.25;0.35;;;15.50;91.40;;;;;;5026932;28;20045;-36
2022/09/20 11:07:15;;;;;;;5.45;0.30;;;15.60;91.30;;;;;;5028971;28;20502;-35
2022/09/20 11:10:03;;;;;;;4.55;0.50;;;15.90;90.90;;;;;;5034712;28;20487;-35
2022/09/20 11:12:32;;;;;;;2.13;0.30;;;16.00;90.60;;;;;;5034614;28;20050;-35
2022/09/20 11:15:04;;;;;;;3.38;0.43;;;16.20;88.70;;;;;;5033005;28;20126;-35
2022/09/20 11:17:39;;;;;;;3.00;0.30;;;16.30;89.10;;;;;;5033851;28;20048;-36
2022/09/20 11:20:23;;;;;;;2.17;0.30;;;16.30;88.90;;;;;;5038414;28;20111;-35
2022/09/20 11:22:51;;;;;;;5.25;0.50;;;16.50;88.40;;;;;;5030929;28;20103;-36
2022/09/20 11:25:37;;;;;;;2.20;0.30;;;16.80;85.40;;;;;;5029138;28;20806;-45
2022/09/20 11:28:12;;;;;;;3.80;0.40;;;17.00;83.30;;;;;;5029894;28;20037;-38
2022/09/20 11:31:06;;;;;;;2.80;0.40;;;17.30;81.90;;;;;;5034917;28;20046;-36
2022/09/20 11:34:02;;;;;;;2.15;0.20;;;17.50;77.90;;;;;;5028876;28;20046;-37
2022/09/20 11:36:56;;;;;;;1.45;0.30;;;17.50;72.00;;;;;;5019077;28;20076;-37
2022/09/20 11:39:43;;;;;;;2.90;0.30;;;17.60;74.20;;;;;;5032499;28;20045;-38
2022/09/20 11:42:15;;;;;;;2.10;0.10;;;17.70;74.60;;;;;;5034415;28;20441;-37
2022/09/20 11:44:41;;;;;;;1.88;0.20;;;18.10;73.20;;;;;;5036144;28;20122;-36
2022/09/20 11:47:25;;;;;;;3.80;0.40;;;18.30;71.30;;;;;;5038335;28;20087;-36
2022/09/20 11:50:31;;;;;;;5.68;0.30;;;18.40;65.80;;;;;;5023019;28;20502;-37
2022/09/20 11:53:35;;;;;;;0.82;0.15;;;18.30;65.30;;;;;;5036449;28;20068;-38
2022/09/20 11:56:23;;;;;;;3.63;0.22;;;18.00;68.10;;;;;;5033214;28;20127;-36
2022/09/20 11:58:56;;;;;;;7.93;0.55;;;17.50;72.50;;;;;;5032910;28;20040;-37
2022/09/20 12:01:25;;;;;;;;;;;17.00;77.00;;;;;;5036024;28;20037;-38
2022/09/20 12:03:54;;;;;;;2.63;0.45;;;16.40;85.80;;;;;;5039167;28;19921;-38
2022/09/20 12:06:32;;;;;;;1.77;0.30;;;15.90;87.80;;;;;;5014197;28;20040;-39
2022/09/20 12:09:05;;;;;;;3.72;0.57;;;15.50;90.90;;;;;;5042554;28;20045;-38
2022/09/20 12:11:37;;;;;;;1.67;0.30;;;15.30;91.80;;;;;;5035027;28;20069;-37
2022/09/20 12:14:03;;;;;;;;;;;15.20;93.10;;;;;;5035327;28;20128;-37
2022/09/20 12:16:38;;;;;;;3.72;0.32;;;15.20;94.40;;;;;;5031764;28;20054;-38
2022/09/20 12:19:08;;;;;;;2.40;0.38;;;15.10;94.10;;;;;;5032373;28;20057;-38
2022/09/20 12:21:59;;;;;;;2.20;0.40;;;15.10;94.50;;;;;;5035770;28;20044;-38
2022/09/20 12:24:29;;;;;;;4.35;0.52;;;15.20;95.70;;;;;;5036505;28;20064;-38
2022/09/20 12:27:26;;;;;;;1.90;0.30;;;15.30;95.00;;;;;;5038206;28;20038;-37
2022/09/20 12:30:20;;;;;;;4.93;0.50;;;15.40;95.40;;;;;;5013421;28;20053;-37
2022/09/20 12:32:55;;;;;;;1.38;0.20;;;15.60;95.50;;;;;;5045782;28;20043;-38
2022/09/20 12:35:35;;;;;;;2.65;0.30;;;15.70;95.30;;;;;;5041248;28;21895;-38
2022/09/20 12:38:19;;;;;;;3.03;0.30;;;15.70;95.00;;;;;;5040904;28;20979;-38
2022/09/20 12:40:58;;;;;;;4.10;0.57;;;15.80;94.30;;;;;;5041311;28;20135;-38
2022/09/20 12:43:26;;;;;;;2.03;0.30;;;16.10;94.40;;;;;;5033589;28;20037;-38
2022/09/20 12:45:56;;;;;;;3.35;0.22;;;16.70;93.00;;;;;;5035761;28;20544;-37
2022/09/20 12:48:22;;;;;;;2.63;0.30;;;17.50;90.90;;;;;;5028681;28;20038;-38
2022/09/20 12:54:07;;;;;;;5.38;0.55;;;19.40;79.70;;;;;;5037845;28;20034;-37
2022/09/20 12:56:40;;;;;;;3.40;0.40;;;19.80;77.30;;;;;;5032845;28;20487;-37
2022/09/20 12:59:26;;;;;;;3.15;0.32;;;19.50;75.50;;;;;;5040450;28;21485;-37
2022/09/20 13:01:52;;;;;;;2.33;0.17;;;19.00;74.90;;;;;;5029156;28;20476;-39
2022/09/20 13:04:48;;;;;;;1.27;0.22;;;18.70;78.60;;;;;;5035077;28;20121;-37
2022/09/20 13:07:33;;;;;;;2.75;0.30;;;19.20;77.60;;;;;;5037840;28;20037;-37
2022/09/20 13:10:05;;;;;;;2.13;0.30;;;20.30;68.90;;;;;;5025438;28;20041;-37
2022/09/20 13:12:35;;;;;;;3.42;0.30;;;20.60;66.00;;;;;;5033529;28;20052;-38
2022/09/20 13:15:02;;;;;;;2.35;0.30;;;20.30;63.70;;;;;;5034209;28;20401;-38
2022/09/20 13:17:30;;;;;;;3.92;0.30;;;19.90;63.80;;;;;;5035207;28;20123;-36
2022/09/20 13:19:56;;;;;;;4.35;0.55;;;19.90;65.30;;;;;;5032134;28;20041;-35
2022/09/20 13:22:31;;;;;;;6.07;0.65;;;20.80;63.20;;;;;;5028998;28;20149;-35
2022/09/20 13:25:03;;;;;;;2.28;0.40;;;21.40;59.20;;;;;;5029914;28;20499;-36
2022/09/20 13:27:38;;;;;;;2.67;0.25;;;20.90;59.90;;;;;;5044277;28;20028;-37
2022/09/20 13:30:17;;;;;;;4.03;0.85;;;20.10;63.10;;;;;;5032274;28;20045;-36
2022/09/20 13:32:43;;;;;;;4.32;0.93;;;19.30;65.10;;;;;;5032989;28;20356;-36
2022/09/20 13:35:09;;;;;;;3.33;0.55;;;18.60;67.50;;;;;;5037109;28;20041;-36
2022/09/20 13:37:45;;;;;;;2.90;0.50;;;18.20;69.60;;;;;;5033544;28;20045;-37
2022/09/20 13:40:23;;;;;;;1.50;0.20;;;17.80;70.50;;;;;;5035087;28;20370;-35
2022/09/20 13:42:51;;;;;;;2.83;0.52;;;17.50;71.70;;;;;;5023737;28;20036;-36
2022/09/20 13:45:19;;;;;;;4.30;0.50;;;17.50;72.80;;;;;;5032485;28;20052;-36
2022/09/20 13:47:51;;;;;;;4.25;0.50;;;17.50;73.80;;;;;;5033211;28;20033;-36
2022/09/20 13:50:27;;;;;;;2.87;0.30;;;17.60;73.80;;;;;;5034866;28;20052;-38
2022/09/20 13:52:58;;;;;;;4.63;0.40;;;18.60;71.80;;;;;;5036027;28;20044;-37
2022/09/20 13:55:34;;;;;;;5.90;0.43;;;19.70;65.60;;;;;;5038370;28;20040;-37
2022/09/20 13:58:06;;;;;;;3.15;0.40;;;20.80;60.70;;;;;;5038987;28;20076;-37
2022/09/20 14:00:37;;;;;;;3.47;0.40;;;21.40;57.00;;;;;;5033659;28;20041;-40
2022/09/20 14:03:03;;;;;;;2.15;0.30;;;22.00;54.10;;;;;;5015393;28;20053;-38